sensor_id;sensor_type;location;lat;lon;timestamp;temperature;humidity
51914;DHT22;37940;53.002;6.930;2022-09-09T00:01:51;13.50;99.90
51914;DHT22;37940;53.002;6.930;2022-09-09T00:07:03;13.50;99.90
51914;DHT22;37940;53.002;6.930;2022-09-09T00:12:44;13.40;99.90
51914;DHT22;37940;53.002;6.930;2022-09-09T00:15:24;13.40;99.90
51914;DHT22;37940;53.002;6.930;2022-09-09T00:20:58;13.30;99.90
51914;DHT22;37940;53.002;6.930;2022-09-09T00:23:34;13.30;99.90
51914;DHT22;37940;53.002;6.930;2022-09-09T00:31:39;13.20;99.90
51914;DHT22;37940;53.002;6.930;2022-09-09T00:34:21;13.20;99.90
51914;DHT22;37940;53.002;6.930;2022-09-09T00:36:52;13.20;99.90
51914;DHT22;37940;53.002;6.930;2022-09-09T00:39:41;13.10;99.90
51914;DHT22;37940;53.002;6.930;2022-09-09T00:44:58;13.10;99.90
51914;DHT22;37940;53.002;6.930;2022-09-09T00:47:45;13.10;99.90
51914;DHT22;37940;53.002;6.930;2022-09-09T00:55:34;13.00;99.90
51914;DHT22;37940;53.002;6.930;2022-09-09T00:58:07;13.00;99.90
51914;DHT22;37940;53.002;6.930;2022-09-09T01:00:52;13.00;99.90
51914;DHT22;37940;53.002;6.930;2022-09-09T01:03:37;13.00;99.90
51914;DHT22;37940;53.002;6.930;2022-09-09T01:11:57;13.00;99.90
51914;DHT22;37940;53.002;6.930;2022-09-09T01:27:57;12.80;99.90
51914;DHT22;37940;53.002;6.930;2022-09-09T01:30:24;12.80;99.90
51914;DHT22;37940;53.002;6.930;2022-09-09T01:32:54;12.80;99.90
51914;DHT22;37940;53.002;6.930;2022-09-09T01:38:10;12.80;99.90
51914;DHT22;37940;53.002;6.930;2022-09-09T01:40:36;12.80;99.90
51914;DHT22;37940;53.002;6.930;2022-09-09T01:43:02;12.90;99.90
51914;DHT22;37940;53.002;6.930;2022-09-09T01:45:29;13.00;99.90
51914;DHT22;37940;53.002;6.930;2022-09-09T01:47:56;13.00;99.90
51914;DHT22;37940;53.002;6.930;2022-09-09T01:50:22;13.00;99.90
51914;DHT22;37940;53.002;6.930;2022-09-09T01:52:52;13.00;99.90
51914;DHT22;37940;53.002;6.930;2022-09-09T01:55:29;13.10;99.90
51914;DHT22;37940;53.002;6.930;2022-09-09T01:58:11;13.10;99.90
51914;DHT22;37940;53.002;6.930;2022-09-09T02:00:48;13.10;99.90
51914;DHT22;37940;53.002;6.930;2022-09-09T02:03:27;13.20;99.90
51914;DHT22;37940;53.002;6.930;2022-09-09T02:06:26;13.20;99.90
51914;DHT22;37940;53.002;6.930;2022-09-09T02:08:56;13.20;99.90
51914;DHT22;37940;53.002;6.930;2022-09-09T02:11:25;13.20;99.90
51914;DHT22;37940;53.002;6.930;2022-09-09T02:13:54;13.20;99.90
51914;DHT22;37940;53.002;6.930;2022-09-09T02:16:47;13.20;99.90
51914;DHT22;37940;53.002;6.930;2022-09-09T02:19:24;13.30;99.90
51914;DHT22;37940;53.002;6.930;2022-09-09T02:21:55;13.30;99.90
51914;DHT22;37940;53.002;6.930;2022-09-09T02:24:22;13.30;99.90
51914;DHT22;37940;53.002;6.930;2022-09-09T02:26:49;13.40;99.90
51914;DHT22;37940;53.002;6.930;2022-09-09T02:29:31;13.40;99.90
51914;DHT22;37940;53.002;6.930;2022-09-09T02:32:03;13.50;99.90
51914;DHT22;37940;53.002;6.930;2022-09-09T02:34:34;13.50;99.90
51914;DHT22;37940;53.002;6.930;2022-09-09T02:37:03;13.50;99.90
51914;DHT22;37940;53.002;6.930;2022-09-09T02:39:29;13.50;99.90
51914;DHT22;37940;53.002;6.930;2022-09-09T02:41:55;13.60;99.90
51914;DHT22;37940;53.002;6.930;2022-09-09T02:44:21;13.60;99.90
51914;DHT22;37940;53.002;6.930;2022-09-09T02:47:13;13.60;99.90
51914;DHT22;37940;53.002;6.930;2022-09-09T02:58:07;13.90;99.90
51914;DHT22;37940;53.002;6.930;2022-09-09T03:00:35;13.90;99.90
51914;DHT22;37940;53.002;6.930;2022-09-09T03:03:03;13.90;99.90
51914;DHT22;37940;53.002;6.930;2022-09-09T03:05:29;14.00;99.90
51914;DHT22;37940;53.002;6.930;2022-09-09T03:07:55;14.00;99.90
51914;DHT22;37940;53.002;6.930;2022-09-09T03:10:20;14.00;99.90
51914;DHT22;37940;53.002;6.930;2022-09-09T03:12:46;14.10;99.90
51914;DHT22;37940;53.002;6.930;2022-09-09T03:15:29;14.10;99.90
51914;DHT22;37940;53.002;6.930;2022-09-09T03:18:21;14.10;99.90
51914;DHT22;37940;53.002;6.930;2022-09-09T03:20:51;14.10;99.90
51914;DHT22;37940;53.002;6.930;2022-09-09T03:23:17;14.10;99.90
51914;DHT22;37940;53.002;6.930;2022-09-09T03:25:47;14.10;99.90
51914;DHT22;37940;53.002;6.930;2022-09-09T03:28:14;14.10;99.90
51914;DHT22;37940;53.002;6.930;2022-09-09T03:30:40;14.10;99.90
51914;DHT22;37940;53.002;6.930;2022-09-09T03:33:05;14.20;99.90
51914;DHT22;37940;53.002;6.930;2022-09-09T03:35:31;14.20;99.90
51914;DHT22;37940;53.002;6.930;2022-09-09T03:37:57;14.20;99.90
51914;DHT22;37940;53.002;6.930;2022-09-09T03:40:23;14.20;99.90
51914;DHT22;37940;53.002;6.930;2022-09-09T03:42:48;14.20;99.90
51914;DHT22;37940;53.002;6.930;2022-09-09T03:45:14;14.20;99.90
51914;DHT22;37940;53.002;6.930;2022-09-09T03:47:40;14.10;99.90
51914;DHT22;37940;53.002;6.930;2022-09-09T03:50:07;14.20;99.90
51914;DHT22;37940;53.002;6.930;2022-09-09T03:52:39;14.10;99.90
51914;DHT22;37940;53.002;6.930;2022-09-09T03:55:06;14.20;99.90
51914;DHT22;37940;53.002;6.930;2022-09-09T03:57:33;14.10;99.90
51914;DHT22;37940;53.002;6.930;2022-09-09T04:00:05;14.10;99.90
51914;DHT22;37940;53.002;6.930;2022-09-09T04:02:32;14.10;99.90
51914;DHT22;37940;53.002;6.930;2022-09-09T04:04:58;14.10;99.90
51914;DHT22;37940;53.002;6.930;2022-09-09T04:07:25;14.10;99.90
51914;DHT22;37940;53.002;6.930;2022-09-09T04:09:52;14.10;99.90
51914;DHT22;37940;53.002;6.930;2022-09-09T04:12:19;14.10;99.90
51914;DHT22;37940;53.002;6.930;2022-09-09T04:14:46;14.10;99.90
51914;DHT22;37940;53.002;6.930;2022-09-09T04:17:12;14.10;99.90
51914;DHT22;37940;53.002;6.930;2022-09-09T04:19:37;14.10;99.90
51914;DHT22;37940;53.002;6.930;2022-09-09T04:22:03;14.10;99.90
51914;DHT22;37940;53.002;6.930;2022-09-09T04:24:29;14.10;99.90
51914;DHT22;37940;53.002;6.930;2022-09-09T04:26:55;14.10;99.90
51914;DHT22;37940;53.002;6.930;2022-09-09T04:29:21;14.00;99.90
51914;DHT22;37940;53.002;6.930;2022-09-09T04:31:46;14.00;99.90
51914;DHT22;37940;53.002;6.930;2022-09-09T04:34:12;14.00;99.90
51914;DHT22;37940;53.002;6.930;2022-09-09T04:36:38;14.10;99.90
51914;DHT22;37940;53.002;6.930;2022-09-09T04:39:04;14.00;99.90
51914;DHT22;37940;53.002;6.930;2022-09-09T04:41:30;14.00;99.90
51914;DHT22;37940;53.002;6.930;2022-09-09T04:43:56;14.00;99.90
51914;DHT22;37940;53.002;6.930;2022-09-09T04:46:22;14.00;99.90
51914;DHT22;37940;53.002;6.930;2022-09-09T04:48:49;14.00;99.90
51914;DHT22;37940;53.002;6.930;2022-09-09T04:51:16;14.00;99.90
51914;DHT22;37940;53.002;6.930;2022-09-09T04:53:42;14.00;99.90
51914;DHT22;37940;53.002;6.930;2022-09-09T04:56:10;13.90;99.90
51914;DHT22;37940;53.002;6.930;2022-09-09T04:58:37;13.90;99.90
51914;DHT22;37940;53.002;6.930;2022-09-09T05:01:12;13.90;99.90
51914;DHT22;37940;53.002;6.930;2022-09-09T05:03:38;13.90;99.90
51914;DHT22;37940;53.002;6.930;2022-09-09T05:06:04;13.90;99.90
51914;DHT22;37940;53.002;6.930;2022-09-09T05:08:31;13.90;99.90
51914;DHT22;37940;53.002;6.930;2022-09-09T05:10:57;13.90;99.90
51914;DHT22;37940;53.002;6.930;2022-09-09T05:13:25;13.90;99.90
51914;DHT22;37940;53.002;6.930;2022-09-09T05:15:53;13.90;99.90
51914;DHT22;37940;53.002;6.930;2022-09-09T05:18:19;13.90;99.90
51914;DHT22;37940;53.002;6.930;2022-09-09T05:20:45;14.00;99.90
51914;DHT22;37940;53.002;6.930;2022-09-09T05:23:10;13.90;99.90
51914;DHT22;37940;53.002;6.930;2022-09-09T05:25:39;13.90;99.90
51914;DHT22;37940;53.002;6.930;2022-09-09T05:28:07;13.90;99.90
51914;DHT22;37940;53.002;6.930;2022-09-09T05:30:33;13.90;99.90
51914;DHT22;37940;53.002;6.930;2022-09-09T05:32:59;13.90;99.90
51914;DHT22;37940;53.002;6.930;2022-09-09T05:35:25;13.90;99.90
51914;DHT22;37940;53.002;6.930;2022-09-09T05:37:51;13.90;99.90
51914;DHT22;37940;53.002;6.930;2022-09-09T05:40:16;13.90;99.90
51914;DHT22;37940;53.002;6.930;2022-09-09T05:42:42;14.00;99.90
51914;DHT22;37940;53.002;6.930;2022-09-09T05:45:08;14.00;99.90
51914;DHT22;37940;53.002;6.930;2022-09-09T05:47:35;14.00;99.90
51914;DHT22;37940;53.002;6.930;2022-09-09T05:50:03;14.00;99.90
51914;DHT22;37940;53.002;6.930;2022-09-09T05:52:29;14.00;99.90
51914;DHT22;37940;53.002;6.930;2022-09-09T05:54:55;14.00;99.90
51914;DHT22;37940;53.002;6.930;2022-09-09T05:57:22;14.00;99.90
51914;DHT22;37940;53.002;6.930;2022-09-09T05:59:48;14.00;99.90
51914;DHT22;37940;53.002;6.930;2022-09-09T06:02:13;14.10;99.90
51914;DHT22;37940;53.002;6.930;2022-09-09T06:04:39;14.10;99.90
51914;DHT22;37940;53.002;6.930;2022-09-09T06:07:05;14.20;99.90
51914;DHT22;37940;53.002;6.930;2022-09-09T06:09:31;14.20;99.90
51914;DHT22;37940;53.002;6.930;2022-09-09T06:11:57;14.20;99.90
51914;DHT22;37940;53.002;6.930;2022-09-09T06:14:24;14.30;99.90
51914;DHT22;37940;53.002;6.930;2022-09-09T06:16:51;14.30;99.90
51914;DHT22;37940;53.002;6.930;2022-09-09T06:19:17;14.30;99.90
51914;DHT22;37940;53.002;6.930;2022-09-09T06:21:43;14.30;99.90
51914;DHT22;37940;53.002;6.930;2022-09-09T06:24:09;14.40;99.90
51914;DHT22;37940;53.002;6.930;2022-09-09T06:26:38;14.40;99.90
51914;DHT22;37940;53.002;6.930;2022-09-09T06:29:07;14.40;99.90
51914;DHT22;37940;53.002;6.930;2022-09-09T06:31:34;14.50;99.90
51914;DHT22;37940;53.002;6.930;2022-09-09T06:34:05;14.60;99.90
51914;DHT22;37940;53.002;6.930;2022-09-09T06:36:33;14.60;99.90
51914;DHT22;37940;53.002;6.930;2022-09-09T06:39:00;14.70;99.90
51914;DHT22;37940;53.002;6.930;2022-09-09T06:41:27;14.70;99.90
51914;DHT22;37940;53.002;6.930;2022-09-09T06:43:53;14.80;99.90
51914;DHT22;37940;53.002;6.930;2022-09-09T06:46:30;15.00;99.90
51914;DHT22;37940;53.002;6.930;2022-09-09T06:48:58;15.20;99.90
51914;DHT22;37940;53.002;6.930;2022-09-09T06:51:35;15.50;99.90
51914;DHT22;37940;53.002;6.930;2022-09-09T06:54:02;15.70;99.90
51914;DHT22;37940;53.002;6.930;2022-09-09T06:56:36;15.80;99.90
51914;DHT22;37940;53.002;6.930;2022-09-09T06:59:04;15.90;99.90
51914;DHT22;37940;53.002;6.930;2022-09-09T07:01:35;15.90;99.90
51914;DHT22;37940;53.002;6.930;2022-09-09T07:04:03;15.90;99.90
51914;DHT22;37940;53.002;6.930;2022-09-09T07:06:38;16.00;99.90
51914;DHT22;37940;53.002;6.930;2022-09-09T07:09:08;16.00;99.90
51914;DHT22;37940;53.002;6.930;2022-09-09T07:11:41;16.00;99.90
51914;DHT22;37940;53.002;6.930;2022-09-09T07:14:07;16.00;99.90
51914;DHT22;37940;53.002;6.930;2022-09-09T07:16:33;16.00;99.90
51914;DHT22;37940;53.002;6.930;2022-09-09T07:19:00;16.00;99.90
51914;DHT22;37940;53.002;6.930;2022-09-09T07:21:28;16.10;99.90
51914;DHT22;37940;53.002;6.930;2022-09-09T07:23:54;16.10;99.90
51914;DHT22;37940;53.002;6.930;2022-09-09T07:26:22;16.10;99.90
51914;DHT22;37940;53.002;6.930;2022-09-09T07:28:48;16.20;99.90
51914;DHT22;37940;53.002;6.930;2022-09-09T07:31:25;16.20;99.90
51914;DHT22;37940;53.002;6.930;2022-09-09T07:33:52;16.30;99.90
51914;DHT22;37940;53.002;6.930;2022-09-09T07:36:26;16.30;99.90
51914;DHT22;37940;53.002;6.930;2022-09-09T07:38:58;16.40;99.90
51914;DHT22;37940;53.002;6.930;2022-09-09T07:41:27;16.40;99.90
51914;DHT22;37940;53.002;6.930;2022-09-09T07:43:53;16.60;99.90
51914;DHT22;37940;53.002;6.930;2022-09-09T07:46:24;16.60;99.90
51914;DHT22;37940;53.002;6.930;2022-09-09T07:48:53;16.70;99.90
51914;DHT22;37940;53.002;6.930;2022-09-09T07:51:25;16.80;99.90
51914;DHT22;37940;53.002;6.930;2022-09-09T07:53:56;16.90;99.90
51914;DHT22;37940;53.002;6.930;2022-09-09T07:56:26;17.10;99.90
51914;DHT22;37940;53.002;6.930;2022-09-09T07:58:53;17.20;99.90
51914;DHT22;37940;53.002;6.930;2022-09-09T08:01:31;17.30;99.90
51914;DHT22;37940;53.002;6.930;2022-09-09T08:04:02;17.40;99.90
51914;DHT22;37940;53.002;6.930;2022-09-09T08:06:32;17.60;99.90
51914;DHT22;37940;53.002;6.930;2022-09-09T08:09:01;17.70;99.90
51914;DHT22;37940;53.002;6.930;2022-09-09T08:11:28;17.90;99.90
51914;DHT22;37940;53.002;6.930;2022-09-09T08:13:55;18.00;99.90
51914;DHT22;37940;53.002;6.930;2022-09-09T08:16:23;18.20;99.90
51914;DHT22;37940;53.002;6.930;2022-09-09T08:18:52;18.30;99.90
51914;DHT22;37940;53.002;6.930;2022-09-09T08:21:26;18.30;99.90
51914;DHT22;37940;53.002;6.930;2022-09-09T08:23:53;18.40;99.90
51914;DHT22;37940;53.002;6.930;2022-09-09T08:26:22;18.40;99.90
51914;DHT22;37940;53.002;6.930;2022-09-09T08:28:53;18.50;99.90
51914;DHT22;37940;53.002;6.930;2022-09-09T08:31:24;18.60;99.90
51914;DHT22;37940;53.002;6.930;2022-09-09T08:33:50;18.70;99.90
51914;DHT22;37940;53.002;6.930;2022-09-09T08:36:22;18.80;99.90
51914;DHT22;37940;53.002;6.930;2022-09-09T08:38:53;19.00;99.90
51914;DHT22;37940;53.002;6.930;2022-09-09T08:44:37;19.30;99.90
51914;DHT22;37940;53.002;6.930;2022-09-09T08:47:34;19.40;99.90
51914;DHT22;37940;53.002;6.930;2022-09-09T08:50:05;19.50;99.90
51914;DHT22;37940;53.002;6.930;2022-09-09T08:55:22;19.60;99.90
51914;DHT22;37940;53.002;6.930;2022-09-09T08:57:57;19.60;99.90
51914;DHT22;37940;53.002;6.930;2022-09-09T09:00:38;19.60;99.90
51914;DHT22;37940;53.002;6.930;2022-09-09T09:03:21;19.70;99.90
51914;DHT22;37940;53.002;6.930;2022-09-09T09:06:04;19.80;99.90
51914;DHT22;37940;53.002;6.930;2022-09-09T09:08:47;19.90;99.90
51914;DHT22;37940;53.002;6.930;2022-09-09T09:11:17;20.00;99.90
51914;DHT22;37940;53.002;6.930;2022-09-09T09:16:33;20.00;99.90
51914;DHT22;37940;53.002;6.930;2022-09-09T09:19:00;20.10;99.90
51914;DHT22;37940;53.002;6.930;2022-09-09T09:21:50;20.10;99.90
51914;DHT22;37940;53.002;6.930;2022-09-09T09:24:27;20.00;99.90
51914;DHT22;37940;53.002;6.930;2022-09-09T09:27:00;19.90;99.90
51914;DHT22;37940;53.002;6.930;2022-09-09T09:29:32;20.00;99.90
51914;DHT22;37940;53.002;6.930;2022-09-09T09:32:02;20.00;99.90
51914;DHT22;37940;53.002;6.930;2022-09-09T09:34:28;20.20;99.90
51914;DHT22;37940;53.002;6.930;2022-09-09T09:36:56;20.50;99.90
51914;DHT22;37940;53.002;6.930;2022-09-09T09:39:31;20.90;99.90
51914;DHT22;37940;53.002;6.930;2022-09-09T09:41:57;21.00;99.90
51914;DHT22;37940;53.002;6.930;2022-09-09T09:44:30;20.90;99.90
51914;DHT22;37940;53.002;6.930;2022-09-09T09:49:39;20.40;99.90
51914;DHT22;37940;53.002;6.930;2022-09-09T09:52:06;20.20;99.90
51914;DHT22;37940;53.002;6.930;2022-09-09T09:54:38;20.10;99.90
51914;DHT22;37940;53.002;6.930;2022-09-09T09:57:09;20.10;99.90
51914;DHT22;37940;53.002;6.930;2022-09-09T09:59:35;20.10;99.90
51914;DHT22;37940;53.002;6.930;2022-09-09T10:02:23;20.20;99.90
51914;DHT22;37940;53.002;6.930;2022-09-09T10:05:04;20.30;99.90
51914;DHT22;37940;53.002;6.930;2022-09-09T10:07:30;20.30;99.90
51914;DHT22;37940;53.002;6.930;2022-09-09T10:09:57;20.50;99.90
51914;DHT22;37940;53.002;6.930;2022-09-09T10:12:58;20.60;99.90
51914;DHT22;37940;53.002;6.930;2022-09-09T10:15:45;20.70;99.90
51914;DHT22;37940;53.002;6.930;2022-09-09T10:18:32;20.60;99.90
51914;DHT22;37940;53.002;6.930;2022-09-09T10:34:37;20.50;99.90
51914;DHT22;37940;53.002;6.930;2022-09-09T10:37:25;20.30;99.90
51914;DHT22;37940;53.002;6.930;2022-09-09T10:42:48;20.20;99.90
51914;DHT22;37940;53.002;6.930;2022-09-09T10:45:41;20.20;99.90
51914;DHT22;37940;53.002;6.930;2022-09-09T10:48:18;20.20;99.90
51914;DHT22;37940;53.002;6.930;2022-09-09T10:51:00;20.10;99.90
51914;DHT22;37940;53.002;6.930;2022-09-09T10:56:22;20.50;99.90
51914;DHT22;37940;53.002;6.930;2022-09-09T10:59:14;20.70;99.90
51914;DHT22;37940;53.002;6.930;2022-09-09T11:01:51;21.00;99.90
51914;DHT22;37940;53.002;6.930;2022-09-09T11:04:27;21.30;99.90
51914;DHT22;37940;53.002;6.930;2022-09-09T11:06:56;21.40;99.90
51914;DHT22;37940;53.002;6.930;2022-09-09T11:09:28;21.20;99.90
51914;DHT22;37940;53.002;6.930;2022-09-09T11:11:57;20.90;99.90
51914;DHT22;37940;53.002;6.930;2022-09-09T11:17:02;20.70;99.90
51914;DHT22;37940;53.002;6.930;2022-09-09T11:19:40;20.70;99.90
51914;DHT22;37940;53.002;6.930;2022-09-09T11:24:47;21.00;99.90
51914;DHT22;37940;53.002;6.930;2022-09-09T11:27:21;21.30;99.90
51914;DHT22;37940;53.002;6.930;2022-09-09T11:29:54;21.60;99.90
51914;DHT22;37940;53.002;6.930;2022-09-09T11:41:01;21.90;99.90
51914;DHT22;37940;53.002;6.930;2022-09-09T11:43:34;21.90;99.90
51914;DHT22;37940;53.002;6.930;2022-09-09T11:46:03;22.00;99.90
51914;DHT22;37940;53.002;6.930;2022-09-09T11:48:36;22.00;99.90
51914;DHT22;37940;53.002;6.930;2022-09-09T11:51:08;22.00;99.90
51914;DHT22;37940;53.002;6.930;2022-09-09T11:53:35;22.10;99.90
51914;DHT22;37940;53.002;6.930;2022-09-09T11:56:13;22.30;99.90
51914;DHT22;37940;53.002;6.930;2022-09-09T11:59:03;22.40;99.90
51914;DHT22;37940;53.002;6.930;2022-09-09T12:01:41;22.50;99.90
51914;DHT22;37940;53.002;6.930;2022-09-09T12:04:21;22.60;99.90
51914;DHT22;37940;53.002;6.930;2022-09-09T12:06:55;22.70;99.90
51914;DHT22;37940;53.002;6.930;2022-09-09T12:09:48;22.60;99.90
51914;DHT22;37940;53.002;6.930;2022-09-09T12:12:29;22.40;99.90
51914;DHT22;37940;53.002;6.930;2022-09-09T12:14:58;22.20;99.90
51914;DHT22;37940;53.002;6.930;2022-09-09T12:17:27;22.00;99.90
51914;DHT22;37940;53.002;6.930;2022-09-09T12:20:24;21.90;99.90
51914;DHT22;37940;53.002;6.930;2022-09-09T12:34:53;22.10;99.90
51914;DHT22;37940;53.002;6.930;2022-09-09T12:37:43;22.40;99.90
51914;DHT22;37940;53.002;6.930;2022-09-09T12:40:24;22.70;99.90
51914;DHT22;37940;53.002;6.930;2022-09-09T12:42:51;22.70;99.90
51914;DHT22;37940;53.002;6.930;2022-09-09T12:45:18;22.80;99.90
51914;DHT22;37940;53.002;6.930;2022-09-09T12:48:08;22.90;99.90
51914;DHT22;37940;53.002;6.930;2022-09-09T12:50:36;23.10;99.90
51914;DHT22;37940;53.002;6.930;2022-09-09T12:53:30;23.10;99.90
51914;DHT22;37940;53.002;6.930;2022-09-09T12:55:58;23.20;99.90
51914;DHT22;37940;53.002;6.930;2022-09-09T12:58:25;23.30;99.90
51914;DHT22;37940;53.002;6.930;2022-09-09T13:00:55;23.40;99.90
51914;DHT22;37940;53.002;6.930;2022-09-09T13:03:25;23.40;99.90
51914;DHT22;37940;53.002;6.930;2022-09-09T13:05:52;23.30;99.90
51914;DHT22;37940;53.002;6.930;2022-09-09T13:08:19;23.20;99.90
51914;DHT22;37940;53.002;6.930;2022-09-09T13:11:02;23.00;99.90
51914;DHT22;37940;53.002;6.930;2022-09-09T13:13:41;23.00;99.90
51914;DHT22;37940;53.002;6.930;2022-09-09T13:16:26;23.00;99.90
51914;DHT22;37940;53.002;6.930;2022-09-09T13:18:56;23.10;99.90
51914;DHT22;37940;53.002;6.930;2022-09-09T13:21:34;23.20;99.90
51914;DHT22;37940;53.002;6.930;2022-09-09T13:24:01;23.20;99.90
51914;DHT22;37940;53.002;6.930;2022-09-09T13:26:29;23.00;99.90
51914;DHT22;37940;53.002;6.930;2022-09-09T13:29:17;22.70;99.90
51914;DHT22;37940;53.002;6.930;2022-09-09T13:31:46;22.50;99.90
51914;DHT22;37940;53.002;6.930;2022-09-09T13:34:26;22.20;99.90
51914;DHT22;37940;53.002;6.930;2022-09-09T13:37:03;21.90;99.90
51914;DHT22;37940;53.002;6.930;2022-09-09T13:39:33;21.60;99.90
51914;DHT22;37940;53.002;6.930;2022-09-09T13:42:00;21.40;99.90
51914;DHT22;37940;53.002;6.930;2022-09-09T13:44:36;21.20;99.90
51914;DHT22;37940;53.002;6.930;2022-09-09T13:47:19;21.00;99.90
51914;DHT22;37940;53.002;6.930;2022-09-09T13:49:46;20.80;99.90
51914;DHT22;37940;53.002;6.930;2022-09-09T13:52:17;20.60;99.90
51914;DHT22;37940;53.002;6.930;2022-09-09T13:54:51;20.30;99.90
51914;DHT22;37940;53.002;6.930;2022-09-09T13:57:22;20.00;99.90
51914;DHT22;37940;53.002;6.930;2022-09-09T13:59:48;19.70;99.90
51914;DHT22;37940;53.002;6.930;2022-09-09T14:02:15;19.40;99.90
51914;DHT22;37940;53.002;6.930;2022-09-09T14:04:42;19.20;99.90
51914;DHT22;37940;53.002;6.930;2022-09-09T14:07:13;19.20;99.90
51914;DHT22;37940;53.002;6.930;2022-09-09T14:09:40;19.10;99.90
51914;DHT22;37940;53.002;6.930;2022-09-09T14:12:10;19.20;99.90
51914;DHT22;37940;53.002;6.930;2022-09-09T14:14:36;19.40;99.90
51914;DHT22;37940;53.002;6.930;2022-09-09T14:17:02;19.50;99.90
51914;DHT22;37940;53.002;6.930;2022-09-09T14:19:28;19.50;99.90
51914;DHT22;37940;53.002;6.930;2022-09-09T14:21:54;19.60;99.90
51914;DHT22;37940;53.002;6.930;2022-09-09T14:24:20;19.60;99.90
51914;DHT22;37940;53.002;6.930;2022-09-09T14:26:45;19.60;99.90
51914;DHT22;37940;53.002;6.930;2022-09-09T14:29:11;19.60;99.90
51914;DHT22;37940;53.002;6.930;2022-09-09T14:31:37;19.60;99.90
51914;DHT22;37940;53.002;6.930;2022-09-09T14:34:02;19.60;99.90
51914;DHT22;37940;53.002;6.930;2022-09-09T14:36:28;19.60;99.90
51914;DHT22;37940;53.002;6.930;2022-09-09T14:38:53;19.60;99.90
51914;DHT22;37940;53.002;6.930;2022-09-09T14:41:19;19.70;99.90
51914;DHT22;37940;53.002;6.930;2022-09-09T14:43:48;19.80;99.90
51914;DHT22;37940;53.002;6.930;2022-09-09T14:46:16;19.90;99.90
51914;DHT22;37940;53.002;6.930;2022-09-09T14:48:42;19.80;99.90
51914;DHT22;37940;53.002;6.930;2022-09-09T14:51:18;19.70;99.90
51914;DHT22;37940;53.002;6.930;2022-09-09T14:53:45;19.50;99.90
51914;DHT22;37940;53.002;6.930;2022-09-09T14:56:15;19.30;99.90
51914;DHT22;37940;53.002;6.930;2022-09-09T14:58:41;19.10;99.90
51914;DHT22;37940;53.002;6.930;2022-09-09T15:01:10;18.90;99.90
51914;DHT22;37940;53.002;6.930;2022-09-09T15:03:36;18.60;99.90
51914;DHT22;37940;53.002;6.930;2022-09-09T15:06:10;18.50;99.90
51914;DHT22;37940;53.002;6.930;2022-09-09T15:08:37;18.30;99.90
51914;DHT22;37940;53.002;6.930;2022-09-09T15:11:05;18.20;99.90
51914;DHT22;37940;53.002;6.930;2022-09-09T15:13:33;18.10;99.90
51914;DHT22;37940;53.002;6.930;2022-09-09T15:16:09;18.00;99.90
51914;DHT22;37940;53.002;6.930;2022-09-09T15:18:36;18.00;99.90
51914;DHT22;37940;53.002;6.930;2022-09-09T15:21:03;18.00;99.90
51914;DHT22;37940;53.002;6.930;2022-09-09T15:23:33;18.00;99.90
51914;DHT22;37940;53.002;6.930;2022-09-09T15:25:59;18.00;99.90
51914;DHT22;37940;53.002;6.930;2022-09-09T15:28:25;18.10;99.90
51914;DHT22;37940;53.002;6.930;2022-09-09T15:30:52;18.20;99.90
51914;DHT22;37940;53.002;6.930;2022-09-09T15:33:20;18.50;99.90
51914;DHT22;37940;53.002;6.930;2022-09-09T15:35:46;18.70;99.90
51914;DHT22;37940;53.002;6.930;2022-09-09T15:38:13;19.00;99.90
51914;DHT22;37940;53.002;6.930;2022-09-09T15:40:42;19.10;99.90
51914;DHT22;37940;53.002;6.930;2022-09-09T15:43:09;19.20;99.90
51914;DHT22;37940;53.002;6.930;2022-09-09T15:45:39;19.30;99.90
51914;DHT22;37940;53.002;6.930;2022-09-09T15:48:05;19.20;99.90
51914;DHT22;37940;53.002;6.930;2022-09-09T15:50:31;19.20;99.90
51914;DHT22;37940;53.002;6.930;2022-09-09T15:53:00;19.20;99.90
51914;DHT22;37940;53.002;6.930;2022-09-09T15:55:26;19.20;99.90
51914;DHT22;37940;53.002;6.930;2022-09-09T15:57:52;19.10;99.90
51914;DHT22;37940;53.002;6.930;2022-09-09T16:00:19;19.00;99.90
51914;DHT22;37940;53.002;6.930;2022-09-09T16:02:47;18.90;99.90
51914;DHT22;37940;53.002;6.930;2022-09-09T16:05:13;18.90;99.90
51914;DHT22;37940;53.002;6.930;2022-09-09T16:07:38;18.90;99.90
51914;DHT22;37940;53.002;6.930;2022-09-09T16:10:04;18.80;99.90
51914;DHT22;37940;53.002;6.930;2022-09-09T16:12:31;18.80;99.90
51914;DHT22;37940;53.002;6.930;2022-09-09T16:14:56;18.80;99.90
51914;DHT22;37940;53.002;6.930;2022-09-09T16:17:23;18.70;99.90
51914;DHT22;37940;53.002;6.930;2022-09-09T16:19:48;18.70;99.90
51914;DHT22;37940;53.002;6.930;2022-09-09T16:22:14;18.60;99.90
51914;DHT22;37940;53.002;6.930;2022-09-09T16:24:41;18.50;99.90
51914;DHT22;37940;53.002;6.930;2022-09-09T16:27:07;18.40;99.90
51914;DHT22;37940;53.002;6.930;2022-09-09T16:29:32;18.30;99.90
51914;DHT22;37940;53.002;6.930;2022-09-09T16:31:58;18.20;99.90
51914;DHT22;37940;53.002;6.930;2022-09-09T16:34:25;18.10;99.90
51914;DHT22;37940;53.002;6.930;2022-09-09T16:36:51;18.00;99.90
51914;DHT22;37940;53.002;6.930;2022-09-09T16:39:20;17.90;99.90
51914;DHT22;37940;53.002;6.930;2022-09-09T16:41:47;17.90;99.90
51914;DHT22;37940;53.002;6.930;2022-09-09T16:44:15;17.70;99.90
51914;DHT22;37940;53.002;6.930;2022-09-09T16:46:44;17.70;99.90
51914;DHT22;37940;53.002;6.930;2022-09-09T16:49:12;17.60;99.90
51914;DHT22;37940;53.002;6.930;2022-09-09T16:51:41;17.50;99.90
51914;DHT22;37940;53.002;6.930;2022-09-09T16:54:08;17.50;99.90
51914;DHT22;37940;53.002;6.930;2022-09-09T16:56:36;17.40;99.90
51914;DHT22;37940;53.002;6.930;2022-09-09T16:59:05;17.40;99.90
51914;DHT22;37940;53.002;6.930;2022-09-09T17:01:34;17.30;99.90
51914;DHT22;37940;53.002;6.930;2022-09-09T17:04:04;17.20;99.90
51914;DHT22;37940;53.002;6.930;2022-09-09T17:06:32;17.20;99.90
51914;DHT22;37940;53.002;6.930;2022-09-09T17:09:02;17.10;99.90
51914;DHT22;37940;53.002;6.930;2022-09-09T17:11:29;17.10;99.90
51914;DHT22;37940;53.002;6.930;2022-09-09T17:13:56;17.10;99.90
51914;DHT22;37940;53.002;6.930;2022-09-09T17:16:25;17.10;99.90
51914;DHT22;37940;53.002;6.930;2022-09-09T17:18:52;17.10;99.90
51914;DHT22;37940;53.002;6.930;2022-09-09T17:21:21;17.10;99.90
51914;DHT22;37940;53.002;6.930;2022-09-09T17:23:47;17.10;99.90
51914;DHT22;37940;53.002;6.930;2022-09-09T17:26:15;17.10;99.90
51914;DHT22;37940;53.002;6.930;2022-09-09T17:28:42;17.10;99.90
51914;DHT22;37940;53.002;6.930;2022-09-09T17:31:10;17.10;99.90
51914;DHT22;37940;53.002;6.930;2022-09-09T17:33:38;17.10;99.90
51914;DHT22;37940;53.002;6.930;2022-09-09T17:36:12;17.10;99.90
51914;DHT22;37940;53.002;6.930;2022-09-09T17:38:38;17.10;99.90
51914;DHT22;37940;53.002;6.930;2022-09-09T17:41:07;17.10;99.90